KNBC

Beaufort MCAS / Merritt Field / Airport

Beaufort, South Carolina, USA
METAR KNBC 191856Z 31009KT 10SM FEW055 34/18 A2993 RMK AO2 SLP136 T03440178
Observed Flight Rules
Sep-19 @ 18:56 UTC (8 minutes ago) Visual Flight Rules
Wind Visibility Clouds
310° at 9 knots 10 miles
  • Few at 5,500' AGL
Temperatures Readings
Current 34°C / 93°F
Dewpoint 18°C / 64°F
Humidity 39%
Altimeter 29.93" Hg
Pressure 1013.6 hPa
Elevation 12
METAR KNBC 191856Z 31009KT 10SM FEW055 34/18 A2993 RMK AO2 SLP136 T03440178
Observed Flight Rules
Sep-19 @ 18:56 UTC
(8 minutes ago)
VFR
Wind Visibility
310° at 9 knots 10 miles
Clouds
  • Few at 5,500' AGL
Temperature Dewpoint
34°C / 93°F 18°C / 64°F
Humidity Altimeter Pressure
39% 29.93" Hg 1013.6 hPa